Time;durP1;ratioP1;P1;durP2;ratioP2;P2;SDS_P1;SDS_P2;PMS_P1;PMS_P2;Temp;Humidity;BMP_temperature;BMP_pressure;BME280_temperature;BME280_humidity;BME280_pressure;Samples;Min_cycle;Max_cycle;Signal;HPM_P1;HPM_P2
2022/05/09 00:02:12;;;;;;;16.50;3.95;;;;;;;10.75;62.40;102928.00;5075192;28;20040;-69
2022/05/09 00:04:37;;;;;;;22.98;4.63;;;;;;;10.71;62.04;102934.78;5074886;28;20443;-70
2022/05/09 00:07:04;;;;;;;12.93;2.58;;;;;;;10.59;62.76;102928.91;5075075;28;20415;-69
2022/05/09 00:09:30;;;;;;;17.25;4.45;;;;;;;10.51;63.02;102936.19;5074708;28;20041;-70
2022/05/09 00:11:56;;;;;;;14.50;4.07;;;;;;;10.33;63.18;102927.53;5074059;28;20035;-69
2022/05/09 00:14:21;;;;;;;14.95;3.83;;;;;;;10.27;63.89;102942.50;5074798;28;20060;-69
2022/05/09 00:16:47;;;;;;;16.27;4.13;;;;;;;10.32;64.38;102932.03;5075519;28;20066;-69
2022/05/09 00:19:17;;;;;;;8.43;2.63;;;;;;;10.23;63.81;102937.63;5074878;28;20037;-69
2022/05/09 00:21:43;;;;;;;11.93;3.40;;;;;;;10.29;63.50;102932.41;5074916;28;20059;-69
2022/05/09 00:24:13;;;;;;;14.18;4.50;;;;;;;10.17;63.84;102932.94;5074940;28;20028;-70
2022/05/09 00:26:39;;;;;;;12.55;3.53;;;;;;;10.16;64.55;102936.63;5073863;28;20127;-68
2022/05/09 00:29:06;;;;;;;17.55;3.60;;;;;;;10.18;64.13;102929.25;5074753;28;20452;-69
2022/05/09 00:31:31;;;;;;;10.35;2.72;;;;;;;10.32;63.46;102923.13;5073808;28;20040;-69
2022/05/09 00:33:57;;;;;;;10.07;3.50;;;;;;;10.23;63.40;102924.19;5063560;28;20036;-70
2022/05/09 00:36:22;;;;;;;11.98;3.17;;;;;;;10.18;64.45;102930.06;5061113;28;20033;-69
2022/05/09 00:38:50;;;;;;;10.02;3.05;;;;;;;10.12;64.00;102930.75;5074268;28;20408;-69
2022/05/09 00:41:34;;;;;;;11.07;3.63;;;;;;;10.09;65.24;102924.84;5074460;28;20067;-69
2022/05/09 00:44:16;;;;;;;12.93;3.40;;;;;;;10.16;63.26;102917.84;5074512;28;20108;-69
2022/05/09 00:46:46;;;;;;;17.58;3.90;;;;;;;10.10;63.75;102921.19;5073955;28;20167;-69
2022/05/09 00:49:24;;;;;;;14.05;3.40;;;;;;;10.17;63.76;102920.34;5073840;28;20029;-69
2022/05/09 00:51:56;;;;;;;19.85;2.97;;;;;;;10.09;63.78;102912.25;5074310;28;20052;-70
2022/05/09 00:54:25;;;;;;;15.18;4.20;;;;;;;10.07;64.48;102922.34;5074585;28;20032;-68
2022/05/09 00:56:56;;;;;;;9.73;3.80;;;;;;;10.05;64.02;102916.31;5074066;28;20593;-69
2022/05/09 00:59:23;;;;;;;18.23;3.90;;;;;;;10.00;64.37;102915.16;5074084;28;20116;-69
2022/05/09 01:01:49;;;;;;;11.82;3.72;;;;;;;10.05;64.24;102912.78;5073955;28;20071;-69
2022/05/09 01:04:21;;;;;;;13.73;5.07;;;;;;;9.99;64.65;102905.41;5073869;28;20036;-69
2022/05/09 01:06:46;;;;;;;16.00;4.28;;;;;;;10.01;64.55;102903.38;5073740;28;20043;-70
2022/05/09 01:09:12;;;;;;;13.80;4.05;;;;;;;9.86;65.25;102903.25;5074130;28;20020;-70
2022/05/09 01:11:42;;;;;;;15.10;3.80;;;;;;;9.86;64.61;102900.56;5073490;28;20109;-70
2022/05/09 01:14:13;;;;;;;11.02;3.45;;;;;;;9.72;65.29;102902.09;5073829;28;20483;-68
2022/05/09 01:16:39;;;;;;;8.68;3.80;;;;;;;9.86;65.21;102908.63;5073328;28;20070;-69
2022/05/09 01:19:24;;;;;;;10.32;2.92;;;;;;;9.75;64.58;102915.16;5073797;28;20037;-70
2022/05/09 01:21:50;;;;;;;12.45;3.40;;;;;;;9.77;65.23;102909.63;5073596;28;20051;-69
2022/05/09 01:24:20;;;;;;;14.65;4.20;;;;;;;9.57;66.20;102911.81;5073983;28;20024;-69
2022/05/09 01:26:46;;;;;;;10.05;3.13;;;;;;;9.57;65.52;102913.69;5073607;28;20127;-71
2022/05/09 01:29:46;;;;;;;20.90;4.18;;;;;;;9.47;66.71;102908.44;5073672;28;20119;-70
2022/05/09 01:32:13;;;;;;;17.33;3.90;;;;;;;9.51;66.70;102901.75;5010871;28;20057;-70
2022/05/09 01:34:46;;;;;;;11.32;3.75;;;;;;;9.48;66.22;102907.47;5010850;28;20046;-69
2022/05/09 01:37:13;;;;;;;15.77;4.40;;;;;;;9.50;66.66;102908.13;5011024;28;20406;-70
2022/05/09 01:39:39;;;;;;;7.65;3.90;;;;;;;9.62;65.69;102905.94;5010662;28;20103;-70
2022/05/09 01:42:07;;;;;;;14.52;4.63;;;;;;;9.71;65.93;102889.66;5011470;28;20061;-69
2022/05/09 01:44:33;;;;;;;18.20;4.55;;;;;;;9.79;65.18;102888.00;5010270;28;20038;-69
2022/05/09 01:49:43;;;;;;;11.07;3.90;;;;;;;9.59;65.46;102892.88;5010602;28;20123;-68
2022/05/09 01:52:14;;;;;;;16.40;4.07;;;;;;;9.55;66.44;102894.22;5010350;28;20089;-69
2022/05/09 01:54:41;;;;;;;13.18;4.32;;;;;;;9.54;65.84;102893.38;5010324;28;20048;-70
2022/05/09 01:57:07;;;;;;;17.35;3.97;;;;;;;9.54;66.32;102893.38;4994293;28;20034;-69
2022/05/09 01:59:32;;;;;;;15.60;4.75;;;;;;;9.39;66.55;102897.75;4991105;28;20057;-70
2022/05/09 02:02:03;;;;;;;16.80;4.65;;;;;;;9.41;66.51;102906.47;4990420;28;20153;-68
2022/05/09 02:04:30;;;;;;;14.77;3.92;;;;;;;9.42;66.92;102905.44;4991117;28;20137;-70
2022/05/09 02:06:57;;;;;;;10.40;3.95;;;;;;;9.51;65.52;102901.75;4991020;28;20046;-68
2022/05/09 02:09:22;;;;;;;19.20;4.03;;;;;;;9.56;66.08;102899.41;5047538;28;20083;-69
2022/05/09 02:11:48;;;;;;;15.27;4.43;;;;;;;9.56;66.09;102899.41;5072907;28;20040;-70
2022/05/09 02:14:13;;;;;;;13.20;4.63;;;;;;;9.37;66.18;102894.38;5072876;28;20039;-69
2022/05/09 02:16:39;;;;;;;10.25;4.07;;;;;;;9.43;66.46;102895.56;5072153;28;20041;-69
2022/05/09 02:19:06;;;;;;;15.80;5.18;;;;;;;9.53;65.96;102899.72;5072783;28;20055;-70
2022/05/09 02:21:32;;;;;;;17.73;5.30;;;;;;;9.40;66.25;102895.88;5072777;28;20024;-70
2022/05/09 02:23:58;;;;;;;21.23;4.90;;;;;;;9.33;65.99;102882.31;5072748;28;20120;-68
2022/05/09 02:26:24;;;;;;;20.13;5.20;;;;;;;9.34;66.46;102885.81;5072537;28;20117;-69
2022/05/09 02:28:50;;;;;;;15.68;4.35;;;;;;;9.19;66.96;102892.84;5072272;28;20129;-69
2022/05/09 02:31:16;;;;;;;16.48;4.40;;;;;;;9.19;67.31;102891.00;5072340;28;20523;-70
2022/05/09 02:33:42;;;;;;;14.35;4.75;;;;;;;9.10;67.90;102883.94;5072183;28;20043;-69
2022/05/09 02:36:08;;;;;;;16.92;5.93;;;;;;;9.13;67.30;102883.63;5072758;28;20162;-70
2022/05/09 02:38:35;;;;;;;12.38;4.20;;;;;;;9.04;67.58;102886.47;5072372;28;20123;-69
2022/05/09 02:41:00;;;;;;;15.07;4.80;;;;;;;9.03;67.63;102887.47;5072473;28;20063;-69
2022/05/09 02:43:26;;;;;;;9.50;4.35;;;;;;;9.08;67.50;102887.81;5072477;28;20408;-70
2022/05/09 02:45:51;;;;;;;12.88;3.85;;;;;;;9.12;67.36;102881.94;5071962;28;20079;-69
2022/05/09 02:48:17;;;;;;;9.88;4.32;;;;;;;8.98;67.88;102871.03;5072962;28;20036;-70
2022/05/09 02:50:42;;;;;;;21.63;4.75;;;;;;;8.90;67.82;102871.03;5072144;28;20040;-70
2022/05/09 02:53:08;;;;;;;18.80;5.30;;;;;;;8.97;68.36;102877.38;5071916;28;20029;-71
2022/05/09 02:55:34;;;;;;;21.90;6.18;;;;;;;8.90;67.72;102871.88;5072110;28;20488;-69
2022/05/09 02:58:00;;;;;;;12.35;4.40;;;;;;;8.83;68.27;102868.16;5071874;28;20036;-68
2022/05/09 03:00:31;;;;;;;16.17;5.10;;;;;;;8.80;68.81;102876.53;5072331;28;20124;-71
2022/05/09 03:05:43;;;;;;;17.88;5.18;;;;;;;8.82;68.83;102874.53;5073271;28;20526;-69
2022/05/09 03:08:11;;;;;;;11.57;4.70;;;;;;;8.75;68.74;102870.81;5071816;28;20051;-70
2022/05/09 03:10:37;;;;;;;17.15;5.57;;;;;;;8.72;68.93;102871.16;5071549;28;20045;-70
2022/05/09 03:13:05;;;;;;;17.63;5.65;;;;;;;8.68;68.65;102865.28;5071403;28;20029;-69
2022/05/09 03:15:36;;;;;;;13.15;4.40;;;;;;;8.64;69.03;102871.13;5071842;28;20044;-69
2022/05/09 03:18:02;;;;;;;;;;;;;;;8.57;69.48;102864.75;5072479;28;20369;-70
2022/05/09 03:20:28;;;;;;;10.85;4.57;;;;;;;8.58;69.88;102867.25;5071718;28;19916;-69
2022/05/09 03:22:54;;;;;;;11.70;4.88;;;;;;;8.65;69.10;102865.59;5071282;28;20090;-69
2022/05/09 03:25:19;;;;;;;14.57;5.00;;;;;;;8.65;69.32;102865.59;5071424;28;20048;-70
2022/05/09 03:27:45;;;;;;;11.18;5.15;;;;;;;8.64;69.46;102868.44;5071602;28;20087;-69
2022/05/09 03:30:12;;;;;;;10.35;4.60;;;;;;;8.62;68.95;102862.41;5070176;28;20119;-69
2022/05/09 03:32:39;;;;;;;20.30;4.80;;;;;;;8.54;69.56;102854.34;5070401;28;20357;-70
2022/05/09 03:35:05;;;;;;;13.50;5.40;;;;;;;8.59;69.45;102860.88;5071974;28;20107;-69
2022/05/09 03:37:30;;;;;;;12.48;5.05;;;;;;;8.53;69.25;102850.00;5071522;28;20036;-68
2022/05/09 03:39:56;;;;;;;17.08;5.45;;;;;;;8.58;69.03;102850.34;5071764;28;20159;-69
2022/05/09 03:42:22;;;;;;;17.92;4.78;;;;;;;8.41;69.46;102853.97;5071918;28;20506;-69
2022/05/09 03:44:47;;;;;;;18.58;5.63;;;;;;;8.51;69.28;102850.13;5071403;28;20071;-71
2022/05/09 03:47:13;;;;;;;16.88;5.05;;;;;;;8.53;69.55;102858.03;5071288;28;20045;-70
2022/05/09 03:49:38;;;;;;;16.13;5.65;;;;;;;8.53;69.96;102855.34;5071307;28;20044;-69
2022/05/09 03:52:04;;;;;;;19.05;5.75;;;;;;;8.58;69.46;102853.84;5071336;28;20487;-70
2022/05/09 03:54:29;;;;;;;15.25;5.35;;;;;;;8.52;69.57;102854.50;5071279;28;20032;-68
2022/05/09 03:56:55;;;;;;;17.67;4.57;;;;;;;8.54;69.71;102857.03;5071587;28;20060;-69
2022/05/09 03:59:20;;;;;;;18.17;5.03;;;;;;;8.47;69.85;102851.47;5071245;28;20124;-68
2022/05/09 04:01:46;;;;;;;13.82;4.97;;;;;;;8.52;70.02;102842.94;5071651;28;20567;-70
2022/05/09 04:04:11;;;;;;;16.35;6.00;;;;;;;8.58;69.56;102842.28;5075604;28;20088;-69
2022/05/09 04:06:37;;;;;;;24.70;6.38;;;;;;;8.69;69.12;102847.34;5091037;27;20036;-70
2022/05/09 04:09:02;;;;;;;12.85;5.72;;;;;;;8.70;69.27;102841.84;5084410;28;20032;-70
2022/05/09 04:11:28;;;;;;;19.95;5.55;;;;;;;8.69;68.88;102844.66;5054554;28;20124;-70
2022/05/09 04:13:53;;;;;;;13.57;4.97;;;;;;;8.69;68.95;102845.50;5050950;28;20136;-69
2022/05/09 04:19:02;;;;;;;15.68;5.03;;;;;;;8.67;69.09;102835.94;5051279;28;20425;-69
2022/05/09 04:21:27;;;;;;;13.05;5.05;;;;;;;8.69;68.89;102839.28;5051028;28;20053;-69
2022/05/09 04:23:56;;;;;;;16.70;5.85;;;;;;;8.77;68.67;102833.97;5050868;28;20122;-70
2022/05/09 04:26:23;;;;;;;19.45;6.65;;;;;;;8.82;68.30;102834.31;5054495;28;20033;-70
2022/05/09 04:28:49;;;;;;;16.58;6.10;;;;;;;8.73;69.16;102828.09;5054518;28;20068;-69
2022/05/09 04:31:15;;;;;;;18.55;4.85;;;;;;;8.52;69.79;102829.53;5054650;28;20064;-69
2022/05/09 04:33:41;;;;;;;13.80;5.63;;;;;;;8.57;69.58;102824.56;5054703;28;20032;-69
2022/05/09 04:36:06;;;;;;;12.65;5.32;;;;;;;8.57;69.88;102830.72;5055061;28;20112;-69
2022/05/09 04:38:32;;;;;;;17.27;6.70;;;;;;;8.49;69.99;102830.69;5054425;28;20029;-69
2022/05/09 04:40:58;;;;;;;14.63;6.05;;;;;;;8.61;69.50;102836.59;5054440;28;20116;-69
2022/05/09 04:43:27;;;;;;;16.00;6.15;;;;;;;8.68;69.76;102835.81;5054104;28;20048;-69
2022/05/09 04:45:53;;;;;;;18.65;5.80;;;;;;;8.79;69.33;102840.00;5049574;28;20529;-70
2022/05/09 04:48:20;;;;;;;21.00;6.25;;;;;;;8.70;69.94;102839.16;5034962;28;20040;-70
2022/05/09 04:50:46;;;;;;;18.30;5.65;;;;;;;8.74;70.07;102839.66;5032848;28;20057;-69
2022/05/09 04:53:12;;;;;;;16.83;6.45;;;;;;;8.80;69.58;102831.78;5034405;28;20037;-69
2022/05/09 04:55:37;;;;;;;14.68;5.82;;;;;;;8.79;69.55;102826.59;5038951;28;20032;-69
2022/05/09 04:58:03;;;;;;;17.48;5.95;;;;;;;8.89;69.87;102832.63;5055388;28;20056;-69
2022/05/09 05:00:29;;;;;;;13.68;6.25;;;;;;;8.86;69.97;102823.06;5054125;28;20075;-69
2022/05/09 05:02:56;;;;;;;18.50;6.22;;;;;;;8.88;70.40;102821.06;5054926;28;20108;-69
2022/05/09 05:05:23;;;;;;;20.65;6.72;;;;;;;8.89;70.17;102821.91;5053922;28;20041;-70
2022/05/09 05:07:49;;;;;;;21.98;6.60;;;;;;;8.92;70.10;102824.28;5053827;28;20120;-69
2022/05/09 05:10:14;;;;;;;25.20;6.70;;;;;;;9.14;69.37;102825.47;5053825;28;20051;-69
2022/05/09 05:12:40;;;;;;;21.00;6.13;;;;;;;9.13;69.57;102816.59;5052472;28;20071;-70
2022/05/09 05:15:07;;;;;;;17.77;6.38;;;;;;;9.33;68.59;102825.97;5052001;28;20064;-70
2022/05/09 05:17:33;;;;;;;16.75;6.88;;;;;;;9.35;69.10;102818.59;5086721;28;20036;-71
2022/05/09 05:19:59;;;;;;;22.05;6.90;;;;;;;9.43;68.43;102821.28;5076625;28;20124;-71
2022/05/09 05:22:24;;;;;;;16.75;6.63;;;;;;;9.45;68.27;102813.03;5078551;28;20140;-70
2022/05/09 05:24:53;;;;;;;30.40;6.68;;;;;;;9.52;68.34;102817.56;5081378;28;20033;-70
2022/05/09 05:27:21;;;;;;;21.33;5.97;;;;;;;9.53;68.67;102821.91;5074095;28;20020;-69
2022/05/09 05:29:46;;;;;;;9.25;5.72;;;;;;;9.61;68.38;102807.66;5072830;28;20415;-69
2022/05/09 05:32:20;;;;;;;15.30;5.75;;;;;;;9.70;68.06;102804.78;5079602;28;20037;-69
2022/05/09 05:34:46;;;;;;;21.83;7.10;;;;;;;9.94;66.74;102800.34;5073275;28;20032;-68
2022/05/09 05:37:12;;;;;;;21.88;7.28;;;;;;;9.83;67.85;102806.09;5073173;28;20036;-68
2022/05/09 05:39:38;;;;;;;22.73;7.38;;;;;;;9.84;67.88;102799.69;5072389;28;20040;-69
2022/05/09 05:42:05;;;;;;;20.00;7.20;;;;;;;10.14;67.28;102812.41;5073362;28;20033;-69
2022/05/09 05:44:31;;;;;;;17.92;6.97;;;;;;;10.09;67.70;102807.50;5072884;28;20032;-68
2022/05/09 05:46:56;;;;;;;23.05;7.40;;;;;;;10.10;68.37;102808.38;5072892;28;20047;-71
2022/05/09 05:49:21;;;;;;;22.88;7.15;;;;;;;10.01;68.17;102804.84;5071637;28;20036;-68
2022/05/09 05:51:47;;;;;;;23.45;6.60;;;;;;;10.15;67.71;102798.78;5054825;28;20127;-71
2022/05/09 05:54:12;;;;;;;15.45;7.75;;;;;;;10.34;67.19;102798.34;5074821;28;20399;-70
2022/05/09 05:56:37;;;;;;;21.55;6.93;;;;;;;10.45;66.70;102802.50;5071129;28;20050;-70
2022/05/09 05:59:04;;;;;;;15.85;5.88;;;;;;;10.43;66.88;102804.53;5072726;28;20368;-70
2022/05/09 06:01:29;;;;;;;16.17;7.38;;;;;;;10.56;66.41;102802.09;5071760;28;20446;-69
2022/05/09 06:03:55;;;;;;;16.15;6.70;;;;;;;10.80;65.49;102807.31;5069985;28;20044;-70
2022/05/09 06:06:20;;;;;;;15.88;6.80;;;;;;;10.61;66.08;102797.03;5072607;28;20036;-69
2022/05/09 06:08:46;;;;;;;17.90;6.68;;;;;;;10.74;66.00;102799.97;5078327;28;20114;-70
2022/05/09 06:11:13;;;;;;;12.32;5.90;;;;;;;10.72;66.30;102793.94;5075828;28;20063;-69
2022/05/09 06:13:39;;;;;;;11.80;6.53;;;;;;;10.88;66.02;102795.66;5079127;28;20115;-70
2022/05/09 06:16:05;;;;;;;8.77;5.55;;;;;;;10.93;65.62;102796.78;5072330;28;20039;-68
2022/05/09 06:18:30;;;;;;;13.55;6.10;;;;;;;10.93;65.96;102794.09;5073055;28;20048;-69
2022/05/09 06:20:56;;;;;;;19.13;6.82;;;;;;;10.94;66.14;102787.72;5071934;28;20465;-69
2022/05/09 06:23:22;;;;;;;16.92;5.75;;;;;;;11.01;66.09;102785.97;5085697;28;20112;-69
2022/05/09 06:25:48;;;;;;;19.08;7.13;;;;;;;11.18;65.76;102790.19;5071851;28;20033;-70
2022/05/09 06:28:15;;;;;;;17.77;7.13;;;;;;;11.31;65.23;102785.03;5062138;27;20056;-70
2022/05/09 06:30:42;;;;;;;16.23;6.72;;;;;;;11.41;65.08;102787.47;5071348;28;20124;-69
2022/05/09 06:33:08;;;;;;;19.98;6.65;;;;;;;11.96;62.87;102787.06;5071863;28;20121;-69
2022/05/09 06:35:40;;;;;;;12.23;5.90;;;;;;;12.03;63.07;102790.69;5070359;28;20071;-69
2022/05/09 06:38:06;;;;;;;14.48;6.03;;;;;;;11.92;63.69;102785.78;5071090;28;20036;-69
2022/05/09 06:40:33;;;;;;;18.50;6.40;;;;;;;11.95;63.26;102788.91;5068513;28;20431;-69
2022/05/09 06:42:59;;;;;;;15.95;5.50;;;;;;;12.12;63.13;102779.63;5070702;28;20136;-69
2022/05/09 06:45:26;;;;;;;19.95;5.97;;;;;;;12.20;63.07;102782.22;5093077;28;20147;-67
2022/05/09 06:47:54;;;;;;;21.52;7.70;;;;;;;12.29;62.71;102773.00;5070249;28;20029;-70
2022/05/09 06:50:21;;;;;;;14.65;5.90;;;;;;;12.35;62.54;102782.19;5073262;28;20099;-69
2022/05/09 06:52:47;;;;;;;19.08;6.80;;;;;;;12.30;62.86;102776.53;5056502;28;20537;-70
2022/05/09 06:55:13;;;;;;;16.80;6.18;;;;;;;12.31;62.51;102772.78;5057597;28;20056;-70
2022/05/09 06:57:43;;;;;;;14.82;6.45;;;;;;;12.50;61.85;102777.56;5053022;28;20589;-70
2022/05/09 07:00:12;;;;;;;25.10;6.28;;;;;;;12.55;62.01;102777.84;5067064;28;20032;-71
2022/05/09 07:02:38;;;;;;;21.52;6.10;;;;;;;12.72;61.37;102783.81;5071745;28;20040;-70
2022/05/09 07:05:05;;;;;;;23.25;6.53;;;;;;;12.77;61.39;102774.16;5071478;28;20048;-70
2022/05/09 07:07:31;;;;;;;24.23;6.55;;;;;;;12.87;61.55;102771.97;5071582;28;20123;-69
2022/05/09 07:09:56;;;;;;;14.02;5.53;;;;;;;12.97;61.14;102777.84;5071723;28;20063;-69
2022/05/09 07:12:21;;;;;;;19.30;6.22;;;;;;;13.13;60.83;102780.31;5072150;28;20037;-69
2022/05/09 07:14:47;;;;;;;15.75;7.10;;;;;;;13.19;60.58;102774.16;5071686;28;20036;-70
2022/05/09 07:17:12;;;;;;;22.75;5.90;;;;;;;13.39;60.06;102781.56;5071484;28;20059;-69
2022/05/09 07:19:38;;;;;;;15.93;6.25;;;;;;;13.42;58.98;102779.31;5071651;28;20056;-70
2022/05/09 07:22:03;;;;;;;10.32;5.97;;;;;;;13.57;59.34;102773.78;5071864;28;20036;-70
2022/05/09 07:24:29;;;;;;;12.77;5.70;;;;;;;13.64;59.15;102772.81;5071367;28;20491;-69
2022/05/09 07:26:54;;;;;;;22.98;6.15;;;;;;;13.77;59.13;102769.34;5071490;28;20161;-70
2022/05/09 07:29:20;;;;;;;11.55;5.57;;;;;;;13.84;58.76;102767.50;5071329;28;20082;-70
2022/05/09 07:31:45;;;;;;;16.83;6.38;;;;;;;13.96;58.74;102765.91;5071202;28;20116;-72
2022/05/09 07:34:10;;;;;;;21.95;6.18;;;;;;;14.19;58.01;102757.50;5071551;28;20047;-70
2022/05/09 07:36:36;;;;;;;23.13;6.10;;;;;;;14.34;57.50;102759.06;5071806;28;20454;-69
2022/05/09 07:39:02;;;;;;;19.10;5.53;;;;;;;14.37;57.37;102764.03;5071244;28;20384;-71
2022/05/09 07:41:28;;;;;;;14.68;6.80;;;;;;;14.49;56.35;102766.97;5100165;28;20054;-70
2022/05/09 07:43:54;;;;;;;13.13;5.32;;;;;;;14.62;55.52;102764.34;5071444;28;20158;-70
2022/05/09 07:46:19;;;;;;;18.20;6.38;;;;;;;14.92;54.83;102762.91;5069616;28;20044;-70
2022/05/09 07:48:46;;;;;;;15.43;6.00;;;;;;;15.06;54.58;102761.03;5070607;28;20032;-72
2022/05/09 07:51:11;;;;;;;19.02;5.80;;;;;;;15.08;54.12;102764.38;5071309;28;20467;-71
2022/05/09 07:53:36;;;;;;;17.38;5.68;;;;;;;15.22;53.19;102760.63;5078408;28;20036;-71
2022/05/09 07:56:04;;;;;;;13.18;4.88;;;;;;;15.22;53.05;102763.34;5072695;28;20028;-72
2022/05/09 07:58:31;;;;;;;15.63;5.68;;;;;;;15.38;52.69;102760.19;5072281;28;20068;-69
2022/05/09 08:00:58;;;;;;;13.80;5.25;;;;;;;15.54;52.47;102767.94;5081971;28;20044;-70
2022/05/09 08:03:26;;;;;;;9.57;5.25;;;;;;;15.69;51.50;102763.94;5076070;28;20496;-71
2022/05/09 08:05:56;;;;;;;13.75;4.97;;;;;;;15.80;50.97;102765.19;5075760;28;20054;-72
2022/05/09 08:08:21;;;;;;;13.30;4.50;;;;;;;16.16;50.41;102779.00;5075089;28;20074;-72
2022/05/09 08:10:48;;;;;;;10.30;4.25;;;;;;;16.20;49.72;102774.81;5077011;28;20032;-71
2022/05/09 08:13:16;;;;;;;14.07;4.60;;;;;;;16.57;49.08;102768.59;5075519;28;20032;-71
2022/05/09 08:15:44;;;;;;;23.42;5.53;;;;;;;16.58;47.32;102773.00;5075697;28;20040;-71
2022/05/09 08:18:10;;;;;;;27.98;5.57;;;;;;;16.75;47.17;102767.88;5075571;28;20044;-71
2022/05/09 08:20:38;;;;;;;16.58;5.15;;;;;;;16.85;47.03;102770.94;5075158;28;20059;-70
2022/05/09 08:23:16;;;;;;;10.88;4.15;;;;;;;16.81;47.93;102766.16;5075796;28;20116;-70
2022/05/09 08:25:45;;;;;;;11.05;4.47;;;;;;;17.16;46.22;102761.94;5075296;28;20037;-70
2022/05/09 08:28:11;;;;;;;15.68;4.13;;;;;;;17.12;46.08;102758.81;5075032;28;20067;-71
2022/05/09 08:30:37;;;;;;;13.68;4.28;;;;;;;17.07;45.31;102755.94;5075481;28;20488;-70
2022/05/09 08:33:15;;;;;;;14.40;5.20;;;;;;;17.24;45.41;102757.03;5075704;28;20047;-71
2022/05/09 08:35:43;;;;;;;14.60;4.68;;;;;;;17.12;45.21;102755.28;5075375;28;20032;-70
2022/05/09 08:38:08;;;;;;;21.60;4.68;;;;;;;17.33;44.36;102753.00;5075224;28;20033;-71
2022/05/09 08:41:05;;;;;;;16.33;4.30;;;;;;;17.53;44.56;102752.84;5074706;28;20040;-72
2022/05/09 08:43:51;;;;;;;14.50;4.32;;;;;;;17.53;43.76;102758.28;5076575;28;20071;-71
2022/05/09 08:46:50;;;;;;;10.10;3.70;;;;;;;17.74;43.57;102751.56;5074627;28;20082;-70
2022/05/09 08:49:51;;;;;;;7.70;3.00;;;;;;;17.89;43.54;102752.84;5074676;28;20120;-70
2022/05/09 08:52:19;;;;;;;11.65;3.30;;;;;;;17.89;42.38;102752.00;5032178;28;20178;-70
2022/05/09 08:54:45;;;;;;;14.93;3.30;;;;;;;18.00;43.38;102746.66;5031802;28;20505;-73
2022/05/09 08:57:20;;;;;;;17.35;3.80;;;;;;;18.17;42.29;102758.56;5018290;28;20100;-73
2022/05/09 08:59:56;;;;;;;16.67;3.90;;;;;;;18.27;40.54;102742.53;5032807;28;20041;-72
2022/05/09 09:02:41;;;;;;;9.32;2.90;;;;;;;18.57;39.98;102747.19;5033367;28;20048;-71
2022/05/09 09:05:11;;;;;;;12.90;3.80;;;;;;;18.65;39.21;102746.84;5039337;28;20091;-74
2022/05/09 09:07:48;;;;;;;13.18;4.45;;;;;;;18.70;39.48;102745.09;5033291;28;20033;-74
2022/05/09 09:10:26;;;;;;;14.70;3.42;;;;;;;18.78;38.31;102739.31;5018323;28;20049;-73
2022/05/09 09:13:29;;;;;;;15.82;2.85;;;;;;;19.14;37.89;102747.28;5014408;28;20037;-73
2022/05/09 09:16:12;;;;;;;8.45;3.22;;;;;;;19.23;36.81;102745.91;5012476;28;20042;-71
2022/05/09 09:19:04;;;;;;;11.73;3.45;;;;;;;19.42;36.55;102740.38;5007920;28;20109;-71
2022/05/09 09:21:51;;;;;;;10.95;3.40;;;;;;;19.33;36.51;102733.59;5013558;28;20044;-71
2022/05/09 09:24:42;;;;;;;10.10;2.38;;;;;;;19.28;35.51;102732.38;4997616;28;20120;-73
2022/05/09 09:27:55;;;;;;;16.90;3.03;;;;;;;19.16;36.06;102733.44;5007657;28;20580;-73
2022/05/09 09:30:23;;;;;;;9.95;2.80;;;;;;;19.29;35.22;102725.03;5053443;28;20670;-72
2022/05/09 09:32:54;;;;;;;10.25;2.58;;;;;;;19.59;32.17;102723.03;5053234;28;20033;-74
2022/05/09 09:35:55;;;;;;;6.32;2.20;;;;;;;19.82;34.64;102717.53;5054120;28;20424;-72
2022/05/09 09:38:33;;;;;;;;;;;;;;;19.85;34.08;102714.31;5031763;28;20087;-71
2022/05/09 09:41:20;;;;;;;10.57;3.53;;;;;;;20.17;34.19;102718.25;5031648;28;19952;-70
2022/05/09 09:43:48;;;;;;;17.15;3.35;;;;;;;19.93;34.57;102721.31;5031498;28;20084;-70
2022/05/09 09:46:14;;;;;;;14.48;3.13;;;;;;;20.22;36.26;102716.72;5030809;28;20049;-71
2022/05/09 09:48:40;;;;;;;12.77;3.63;;;;;;;20.44;35.56;102713.03;5031165;28;20037;-70
2022/05/09 09:51:11;;;;;;;14.30;3.13;;;;;;;20.33;34.70;102715.84;5031721;28;20041;-70
2022/05/09 09:53:42;;;;;;;10.18;2.83;;;;;;;20.22;33.04;102703.06;5030289;28;20104;-70
2022/05/09 09:56:07;;;;;;;11.90;3.53;;;;;;;20.41;32.95;102704.53;5030081;28;20056;-71
2022/05/09 09:58:34;;;;;;;13.60;3.10;;;;;;;20.36;32.90;102710.75;5011357;28;20141;-69
2022/05/09 10:01:19;;;;;;;13.00;2.95;;;;;;;19.99;32.78;102693.03;5013068;28;20058;-69
2022/05/09 10:03:48;;;;;;;8.93;2.70;;;;;;;20.02;33.43;102693.41;5030204;28;20095;-71
2022/05/09 10:06:21;;;;;;;13.23;2.90;;;;;;;20.04;34.27;102696.72;5030706;28;20091;-71
2022/05/09 10:09:02;;;;;;;11.82;2.70;;;;;;;20.33;35.07;102697.56;5029982;28;20093;-69
2022/05/09 10:11:29;;;;;;;;;;;;;;;20.54;34.32;102694.13;5029951;28;20107;-69
2022/05/09 10:13:57;;;;;;;7.93;2.75;;;;;;;20.54;34.35;102687.84;5049447;28;19923;-70
2022/05/09 10:16:33;;;;;;;12.55;2.97;;;;;;;20.60;34.02;102698.59;5072469;28;20195;-69
2022/05/09 10:19:08;;;;;;;20.75;3.42;;;;;;;20.73;34.21;102692.84;5072376;28;20033;-69
2022/05/09 10:24:47;;;;;;;10.00;3.25;;;;;;;20.87;33.52;102685.94;5072823;28;20066;-69
2022/05/09 10:27:28;;;;;;;8.60;2.92;;;;;;;20.90;33.59;102681.88;5072838;28;20192;-68
2022/05/09 10:29:56;;;;;;;;;;;;;;;20.85;33.71;102668.97;5073117;28;20399;-70
2022/05/09 10:32:46;;;;;;;10.10;3.80;;;;;;;21.04;34.12;102666.00;5072704;28;20372;-69
2022/05/09 10:35:21;;;;;;;;;;;;;;;20.60;34.08;102667.75;5073279;28;20041;-71
2022/05/09 10:37:49;;;;;;;6.82;2.60;;;;;;;20.62;34.14;102660.09;5072680;28;20026;-71
2022/05/09 10:40:32;;;;;;;15.95;3.45;;;;;;;20.56;34.65;102648.25;5072571;28;20540;-70
2022/05/09 10:43:18;;;;;;;12.27;2.63;;;;;;;21.20;34.87;102652.31;5072511;28;20059;-70
2022/05/09 10:45:48;;;;;;;10.32;3.35;;;;;;;21.29;33.72;102641.75;5072063;28;20020;-67
2022/05/09 10:48:36;;;;;;;10.52;3.05;;;;;;;21.66;32.96;102642.81;5072684;28;20036;-70
2022/05/09 10:51:16;;;;;;;9.95;2.63;;;;;;;22.16;32.59;102634.34;5072565;28;20047;-70
2022/05/09 10:53:53;;;;;;;7.53;2.60;;;;;;;22.18;30.88;102635.75;5072502;28;20364;-71
2022/05/09 10:56:26;;;;;;;7.80;2.33;;;;;;;22.07;31.00;102635.91;5072045;28;20036;-71
2022/05/09 10:59:11;;;;;;;8.57;2.17;;;;;;;21.86;28.99;102634.84;5072261;28;20053;-69
2022/05/09 11:01:44;;;;;;;11.23;2.90;;;;;;;22.06;29.74;102631.50;5072248;28;20028;-70
2022/05/09 11:04:10;;;;;;;6.60;3.03;;;;;;;21.49;31.04;102636.56;5072693;28;20376;-70
2022/05/09 11:07:00;;;;;;;8.88;2.50;;;;;;;21.92;30.69;102631.09;5071754;28;20054;-69
2022/05/09 11:09:57;;;;;;;9.52;3.20;;;;;;;21.63;30.89;102626.88;5072439;28;20380;-70
2022/05/09 11:12:39;;;;;;;10.35;2.85;;;;;;;22.18;31.04;102619.31;5008929;28;20048;-70
2022/05/09 11:15:15;;;;;;;7.72;3.15;;;;;;;22.34;31.87;102614.81;5009405;28;20060;-71
2022/05/09 11:18:05;;;;;;;9.52;2.95;;;;;;;22.50;31.68;102606.47;4989239;28;20463;-69
2022/05/09 11:20:43;;;;;;;9.25;3.33;;;;;;;22.93;31.66;102613.66;4994704;28;20044;-71
2022/05/09 11:23:08;;;;;;;7.90;3.08;;;;;;;22.47;30.36;102611.63;5008281;28;20501;-70
2022/05/09 11:26:02;;;;;;;7.97;2.90;;;;;;;22.99;31.13;102606.28;5008378;28;20121;-69
2022/05/09 11:29:01;;;;;;;5.07;2.53;;;;;;;22.98;31.27;102615.59;5008161;28;20049;-69
2022/05/09 11:31:40;;;;;;;14.02;2.80;;;;;;;22.76;30.12;102612.97;5008779;28;20640;-72
2022/05/09 11:34:11;;;;;;;8.88;3.17;;;;;;;22.38;30.78;102615.94;5010732;28;20092;-70
2022/05/09 11:36:44;;;;;;;6.32;2.85;;;;;;;22.10;30.81;102599.78;5013002;28;20046;-69
2022/05/09 11:39:29;;;;;;;5.50;2.47;;;;;;;22.51;30.08;102601.78;5013224;28;20033;-70
2022/05/09 11:41:57;;;;;;;10.68;3.28;;;;;;;22.81;30.85;102590.25;4997070;28;20054;-70
2022/05/09 11:44:36;;;;;;;6.05;2.13;;;;;;;22.60;30.22;102586.56;5013045;28;20040;-69
2022/05/09 11:47:10;;;;;;;8.45;2.55;;;;;;;23.31;30.20;102577.69;5012965;28;20073;-69